sensor_id;sensor_type;location;lat;lon;timestamp;P1;durP1;ratioP1;P2;durP2;ratioP2
6985;SDS011;3533;51.246;6.850;2022-07-21T00:00:46;3.87;;;3.67;;
6985;SDS011;3533;51.246;6.850;2022-07-21T00:03:12;4.03;;;3.83;;
6985;SDS011;3533;51.246;6.850;2022-07-21T00:05:38;4.10;;;3.90;;
6985;SDS011;3533;51.246;6.850;2022-07-21T00:08:05;3.53;;;3.33;;
6985;SDS011;3533;51.246;6.850;2022-07-21T00:10:31;3.30;;;3.10;;
6985;SDS011;3533;51.246;6.850;2022-07-21T00:12:57;4.27;;;4.07;;
6985;SDS011;3533;51.246;6.850;2022-07-21T00:15:24;3.80;;;3.60;;
6985;SDS011;3533;51.246;6.850;2022-07-21T00:17:51;4.00;;;3.80;;
6985;SDS011;3533;51.246;6.850;2022-07-21T00:20:18;3.70;;;3.50;;
6985;SDS011;3533;51.246;6.850;2022-07-21T00:22:44;3.70;;;3.50;;
6985;SDS011;3533;51.246;6.850;2022-07-21T00:25:10;3.70;;;3.50;;
6985;SDS011;3533;51.246;6.850;2022-07-21T00:27:37;3.80;;;3.60;;
6985;SDS011;3533;51.246;6.850;2022-07-21T00:30:04;3.70;;;3.50;;
6985;SDS011;3533;51.246;6.850;2022-07-21T00:32:31;3.70;;;3.50;;
6985;SDS011;3533;51.246;6.850;2022-07-21T00:34:57;3.63;;;3.43;;
6985;SDS011;3533;51.246;6.850;2022-07-21T00:37:27;4.27;;;4.07;;
6985;SDS011;3533;51.246;6.850;2022-07-21T00:39:54;3.60;;;3.40;;
6985;SDS011;3533;51.246;6.850;2022-07-21T00:42:26;3.90;;;3.70;;
6985;SDS011;3533;51.246;6.850;2022-07-21T00:44:53;3.73;;;3.53;;
6985;SDS011;3533;51.246;6.850;2022-07-21T00:47:22;3.97;;;3.77;;
6985;SDS011;3533;51.246;6.850;2022-07-21T00:49:51;3.67;;;3.47;;
6985;SDS011;3533;51.246;6.850;2022-07-21T00:52:17;4.10;;;3.90;;
6985;SDS011;3533;51.246;6.850;2022-07-21T00:54:43;3.50;;;3.30;;
6985;SDS011;3533;51.246;6.850;2022-07-21T00:57:10;3.53;;;3.33;;
6985;SDS011;3533;51.246;6.850;2022-07-21T00:59:36;3.70;;;3.50;;
6985;SDS011;3533;51.246;6.850;2022-07-21T01:02:03;3.70;;;3.50;;
6985;SDS011;3533;51.246;6.850;2022-07-21T01:04:29;3.37;;;3.17;;
6985;SDS011;3533;51.246;6.850;2022-07-21T01:06:55;4.47;;;4.17;;
6985;SDS011;3533;51.246;6.850;2022-07-21T01:09:22;3.73;;;3.53;;
6985;SDS011;3533;51.246;6.850;2022-07-21T01:11:48;3.40;;;3.20;;
6985;SDS011;3533;51.246;6.850;2022-07-21T01:14:14;4.20;;;4.00;;
6985;SDS011;3533;51.246;6.850;2022-07-21T01:16:41;4.23;;;4.00;;
6985;SDS011;3533;51.246;6.850;2022-07-21T01:19:08;3.73;;;3.53;;
6985;SDS011;3533;51.246;6.850;2022-07-21T01:21:35;3.30;;;3.17;;
6985;SDS011;3533;51.246;6.850;2022-07-21T01:24:03;3.30;;;3.10;;
6985;SDS011;3533;51.246;6.850;2022-07-21T01:26:30;4.40;;;4.20;;
6985;SDS011;3533;51.246;6.850;2022-07-21T01:28:57;4.17;;;3.97;;
6985;SDS011;3533;51.246;6.850;2022-07-21T01:31:23;3.90;;;3.70;;
6985;SDS011;3533;51.246;6.850;2022-07-21T01:33:51;3.50;;;3.30;;
6985;SDS011;3533;51.246;6.850;2022-07-21T01:36:16;3.77;;;3.57;;
6985;SDS011;3533;51.246;6.850;2022-07-21T01:38:42;3.37;;;3.17;;
6985;SDS011;3533;51.246;6.850;2022-07-21T01:41:26;3.67;;;3.47;;
6985;SDS011;3533;51.246;6.850;2022-07-21T01:43:57;3.30;;;3.10;;
6985;SDS011;3533;51.246;6.850;2022-07-21T01:46:29;3.73;;;3.53;;
6985;SDS011;3533;51.246;6.850;2022-07-21T01:48:56;3.90;;;3.70;;
6985;SDS011;3533;51.246;6.850;2022-07-21T01:51:22;3.57;;;3.37;;
6985;SDS011;3533;51.246;6.850;2022-07-21T01:53:47;3.97;;;3.77;;
6985;SDS011;3533;51.246;6.850;2022-07-21T01:56:14;4.00;;;3.80;;
6985;SDS011;3533;51.246;6.850;2022-07-21T01:58:43;3.43;;;3.23;;
6985;SDS011;3533;51.246;6.850;2022-07-21T02:01:09;3.20;;;3.00;;
6985;SDS011;3533;51.246;6.850;2022-07-21T02:03:38;3.50;;;3.30;;
6985;SDS011;3533;51.246;6.850;2022-07-21T02:06:04;3.80;;;3.60;;
6985;SDS011;3533;51.246;6.850;2022-07-21T02:08:31;3.43;;;3.23;;
6985;SDS011;3533;51.246;6.850;2022-07-21T02:10:57;3.63;;;3.43;;
6985;SDS011;3533;51.246;6.850;2022-07-21T02:13:23;3.67;;;3.47;;
6985;SDS011;3533;51.246;6.850;2022-07-21T02:15:49;3.23;;;3.07;;
6985;SDS011;3533;51.246;6.850;2022-07-21T02:18:15;3.27;;;3.07;;
6985;SDS011;3533;51.246;6.850;2022-07-21T02:20:41;3.20;;;3.00;;
6985;SDS011;3533;51.246;6.850;2022-07-21T02:23:07;3.37;;;3.17;;
6985;SDS011;3533;51.246;6.850;2022-07-21T02:25:33;2.90;;;2.77;;
6985;SDS011;3533;51.246;6.850;2022-07-21T02:28:00;3.40;;;3.20;;
6985;SDS011;3533;51.246;6.850;2022-07-21T02:30:26;3.10;;;3.00;;
6985;SDS011;3533;51.246;6.850;2022-07-21T02:32:53;2.90;;;2.70;;
6985;SDS011;3533;51.246;6.850;2022-07-21T02:35:19;3.60;;;3.40;;
6985;SDS011;3533;51.246;6.850;2022-07-21T02:37:44;3.80;;;3.60;;
6985;SDS011;3533;51.246;6.850;2022-07-21T02:40:10;3.60;;;3.30;;
6985;SDS011;3533;51.246;6.850;2022-07-21T02:42:37;3.50;;;3.30;;
6985;SDS011;3533;51.246;6.850;2022-07-21T02:45:04;3.43;;;3.23;;
6985;SDS011;3533;51.246;6.850;2022-07-21T02:47:30;3.00;;;2.80;;
6985;SDS011;3533;51.246;6.850;2022-07-21T02:49:56;3.03;;;2.93;;
6985;SDS011;3533;51.246;6.850;2022-07-21T02:52:21;3.33;;;3.13;;
6985;SDS011;3533;51.246;6.850;2022-07-21T02:54:47;3.23;;;3.03;;
6985;SDS011;3533;51.246;6.850;2022-07-21T02:57:13;3.13;;;2.93;;
6985;SDS011;3533;51.246;6.850;2022-07-21T02:59:39;3.27;;;3.17;;
6985;SDS011;3533;51.246;6.850;2022-07-21T03:02:05;3.30;;;3.10;;
6985;SDS011;3533;51.246;6.850;2022-07-21T03:04:31;3.27;;;3.07;;
6985;SDS011;3533;51.246;6.850;2022-07-21T03:06:56;2.70;;;2.60;;
6985;SDS011;3533;51.246;6.850;2022-07-21T03:09:22;3.47;;;3.27;;
6985;SDS011;3533;51.246;6.850;2022-07-21T03:11:47;2.80;;;2.70;;
6985;SDS011;3533;51.246;6.850;2022-07-21T03:14:13;3.03;;;2.83;;
6985;SDS011;3533;51.246;6.850;2022-07-21T03:16:38;2.97;;;2.80;;
6985;SDS011;3533;51.246;6.850;2022-07-21T03:19:04;2.90;;;2.80;;
6985;SDS011;3533;51.246;6.850;2022-07-21T03:21:30;2.70;;;2.60;;
6985;SDS011;3533;51.246;6.850;2022-07-21T03:23:55;2.70;;;2.60;;
6985;SDS011;3533;51.246;6.850;2022-07-21T03:26:21;3.23;;;3.03;;
6985;SDS011;3533;51.246;6.850;2022-07-21T03:28:47;3.10;;;2.90;;
6985;SDS011;3533;51.246;6.850;2022-07-21T03:31:13;3.10;;;2.90;;
6985;SDS011;3533;51.246;6.850;2022-07-21T03:33:39;3.80;;;3.60;;
6985;SDS011;3533;51.246;6.850;2022-07-21T03:36:05;2.97;;;2.87;;
6985;SDS011;3533;51.246;6.850;2022-07-21T03:38:32;2.80;;;2.70;;
6985;SDS011;3533;51.246;6.850;2022-07-21T03:40:57;3.30;;;3.10;;
6985;SDS011;3533;51.246;6.850;2022-07-21T03:43:23;3.23;;;3.03;;
6985;SDS011;3533;51.246;6.850;2022-07-21T03:45:49;3.07;;;2.90;;
6985;SDS011;3533;51.246;6.850;2022-07-21T03:48:15;2.80;;;2.70;;
6985;SDS011;3533;51.246;6.850;2022-07-21T03:50:41;2.80;;;2.70;;
6985;SDS011;3533;51.246;6.850;2022-07-21T03:53:07;2.97;;;2.87;;
6985;SDS011;3533;51.246;6.850;2022-07-21T03:55:34;3.00;;;2.90;;
6985;SDS011;3533;51.246;6.850;2022-07-21T03:58:01;3.40;;;3.20;;
6985;SDS011;3533;51.246;6.850;2022-07-21T04:00:30;3.00;;;2.90;;
6985;SDS011;3533;51.246;6.850;2022-07-21T04:02:59;3.13;;;3.03;;
6985;SDS011;3533;51.246;6.850;2022-07-21T04:05:25;2.93;;;2.83;;
6985;SDS011;3533;51.246;6.850;2022-07-21T04:07:52;3.20;;;3.00;;
6985;SDS011;3533;51.246;6.850;2022-07-21T04:10:19;3.20;;;3.00;;
6985;SDS011;3533;51.246;6.850;2022-07-21T04:12:52;2.67;;;2.57;;
6985;SDS011;3533;51.246;6.850;2022-07-21T04:15:18;2.80;;;2.70;;
6985;SDS011;3533;51.246;6.850;2022-07-21T04:17:44;2.90;;;2.80;;
6985;SDS011;3533;51.246;6.850;2022-07-21T04:20:11;2.73;;;2.63;;
6985;SDS011;3533;51.246;6.850;2022-07-21T04:22:39;3.23;;;3.03;;
6985;SDS011;3533;51.246;6.850;2022-07-21T04:25:05;2.70;;;2.60;;
6985;SDS011;3533;51.246;6.850;2022-07-21T04:27:32;2.60;;;2.50;;
6985;SDS011;3533;51.246;6.850;2022-07-21T04:29:59;3.00;;;2.90;;
6985;SDS011;3533;51.246;6.850;2022-07-21T04:32:25;2.77;;;2.67;;
6985;SDS011;3533;51.246;6.850;2022-07-21T04:34:51;3.33;;;3.13;;
6985;SDS011;3533;51.246;6.850;2022-07-21T04:37:16;2.90;;;2.70;;
6985;SDS011;3533;51.246;6.850;2022-07-21T04:39:42;3.03;;;2.93;;
6985;SDS011;3533;51.246;6.850;2022-07-21T04:42:08;2.73;;;2.57;;
6985;SDS011;3533;51.246;6.850;2022-07-21T04:44:33;2.67;;;2.57;;
6985;SDS011;3533;51.246;6.850;2022-07-21T04:46:59;2.50;;;2.40;;
6985;SDS011;3533;51.246;6.850;2022-07-21T04:49:25;2.53;;;2.43;;
6985;SDS011;3533;51.246;6.850;2022-07-21T04:51:51;2.83;;;2.63;;
6985;SDS011;3533;51.246;6.850;2022-07-21T04:54:16;2.57;;;2.47;;
6985;SDS011;3533;51.246;6.850;2022-07-21T04:56:43;3.07;;;2.87;;
6985;SDS011;3533;51.246;6.850;2022-07-21T04:59:09;2.80;;;2.70;;
6985;SDS011;3533;51.246;6.850;2022-07-21T05:01:35;2.73;;;2.63;;
6985;SDS011;3533;51.246;6.850;2022-07-21T05:04:02;3.07;;;2.97;;
6985;SDS011;3533;51.246;6.850;2022-07-21T05:06:29;2.93;;;2.80;;
6985;SDS011;3533;51.246;6.850;2022-07-21T05:08:55;2.77;;;2.67;;
6985;SDS011;3533;51.246;6.850;2022-07-21T05:11:21;2.50;;;2.40;;
6985;SDS011;3533;51.246;6.850;2022-07-21T05:13:46;2.80;;;2.70;;
6985;SDS011;3533;51.246;6.850;2022-07-21T05:16:12;3.17;;;2.97;;
6985;SDS011;3533;51.246;6.850;2022-07-21T05:18:38;3.30;;;3.10;;
6985;SDS011;3533;51.246;6.850;2022-07-21T05:21:03;2.73;;;2.63;;
6985;SDS011;3533;51.246;6.850;2022-07-21T05:23:29;2.77;;;2.57;;
6985;SDS011;3533;51.246;6.850;2022-07-21T05:25:55;3.13;;;2.93;;
6985;SDS011;3533;51.246;6.850;2022-07-21T05:28:20;2.53;;;2.43;;
6985;SDS011;3533;51.246;6.850;2022-07-21T05:30:46;2.97;;;2.77;;
6985;SDS011;3533;51.246;6.850;2022-07-21T05:33:11;2.33;;;2.23;;
6985;SDS011;3533;51.246;6.850;2022-07-21T05:35:37;2.70;;;2.60;;
6985;SDS011;3533;51.246;6.850;2022-07-21T05:38:02;3.00;;;2.80;;
6985;SDS011;3533;51.246;6.850;2022-07-21T05:40:29;2.57;;;2.47;;
6985;SDS011;3533;51.246;6.850;2022-07-21T05:42:55;3.00;;;2.90;;
6985;SDS011;3533;51.246;6.850;2022-07-21T05:45:21;3.00;;;2.90;;
6985;SDS011;3533;51.246;6.850;2022-07-21T05:47:46;2.37;;;2.27;;
6985;SDS011;3533;51.246;6.850;2022-07-21T05:50:12;2.73;;;2.63;;
6985;SDS011;3533;51.246;6.850;2022-07-21T05:52:38;3.13;;;2.93;;
6985;SDS011;3533;51.246;6.850;2022-07-21T05:55:04;2.40;;;2.30;;
6985;SDS011;3533;51.246;6.850;2022-07-21T05:57:31;2.60;;;2.50;;
6985;SDS011;3533;51.246;6.850;2022-07-21T05:59:57;2.63;;;2.53;;
6985;SDS011;3533;51.246;6.850;2022-07-21T06:02:24;3.20;;;3.00;;
6985;SDS011;3533;51.246;6.850;2022-07-21T06:04:50;2.80;;;2.70;;
6985;SDS011;3533;51.246;6.850;2022-07-21T06:07:17;2.60;;;2.50;;
6985;SDS011;3533;51.246;6.850;2022-07-21T06:09:43;2.83;;;2.73;;
6985;SDS011;3533;51.246;6.850;2022-07-21T06:12:08;2.70;;;2.60;;
6985;SDS011;3533;51.246;6.850;2022-07-21T06:14:35;3.00;;;2.90;;
6985;SDS011;3533;51.246;6.850;2022-07-21T06:17:00;2.90;;;2.80;;
6985;SDS011;3533;51.246;6.850;2022-07-21T06:19:26;2.70;;;2.60;;
6985;SDS011;3533;51.246;6.850;2022-07-21T06:21:52;2.60;;;2.50;;
6985;SDS011;3533;51.246;6.850;2022-07-21T06:24:17;2.90;;;2.70;;
6985;SDS011;3533;51.246;6.850;2022-07-21T06:26:44;2.40;;;2.20;;
6985;SDS011;3533;51.246;6.850;2022-07-21T06:29:10;2.63;;;2.53;;
6985;SDS011;3533;51.246;6.850;2022-07-21T06:31:36;2.50;;;2.40;;
6985;SDS011;3533;51.246;6.850;2022-07-21T06:34:02;2.40;;;2.30;;
6985;SDS011;3533;51.246;6.850;2022-07-21T06:36:27;2.43;;;2.33;;
6985;SDS011;3533;51.246;6.850;2022-07-21T06:38:53;2.53;;;2.43;;
6985;SDS011;3533;51.246;6.850;2022-07-21T06:41:19;3.03;;;2.93;;
6985;SDS011;3533;51.246;6.850;2022-07-21T06:43:44;2.77;;;2.63;;
6985;SDS011;3533;51.246;6.850;2022-07-21T06:46:10;2.20;;;2.10;;
6985;SDS011;3533;51.246;6.850;2022-07-21T06:48:35;2.47;;;2.37;;
6985;SDS011;3533;51.246;6.850;2022-07-21T06:51:01;2.73;;;2.63;;
6985;SDS011;3533;51.246;6.850;2022-07-21T06:53:26;3.13;;;2.93;;
6985;SDS011;3533;51.246;6.850;2022-07-21T06:55:52;3.10;;;2.90;;
6985;SDS011;3533;51.246;6.850;2022-07-21T06:58:20;2.70;;;2.60;;
6985;SDS011;3533;51.246;6.850;2022-07-21T07:00:47;2.47;;;2.37;;
6985;SDS011;3533;51.246;6.850;2022-07-21T07:03:15;2.60;;;2.50;;
6985;SDS011;3533;51.246;6.850;2022-07-21T07:05:43;2.20;;;2.10;;
6985;SDS011;3533;51.246;6.850;2022-07-21T07:08:11;2.30;;;2.20;;
6985;SDS011;3533;51.246;6.850;2022-07-21T07:10:37;2.40;;;2.30;;
6985;SDS011;3533;51.246;6.850;2022-07-21T07:13:05;2.70;;;2.60;;
6985;SDS011;3533;51.246;6.850;2022-07-21T07:15:30;2.30;;;2.20;;
6985;SDS011;3533;51.246;6.850;2022-07-21T07:17:56;2.70;;;2.60;;
6985;SDS011;3533;51.246;6.850;2022-07-21T07:20:22;2.40;;;2.30;;
6985;SDS011;3533;51.246;6.850;2022-07-21T07:22:48;2.50;;;2.40;;
6985;SDS011;3533;51.246;6.850;2022-07-21T07:25:14;2.50;;;2.40;;
6985;SDS011;3533;51.246;6.850;2022-07-21T07:27:44;2.50;;;2.40;;
6985;SDS011;3533;51.246;6.850;2022-07-21T07:30:11;2.37;;;2.27;;
6985;SDS011;3533;51.246;6.850;2022-07-21T07:32:37;2.60;;;2.50;;
6985;SDS011;3533;51.246;6.850;2022-07-21T07:35:02;3.10;;;2.93;;
6985;SDS011;3533;51.246;6.850;2022-07-21T07:37:28;3.13;;;2.93;;
6985;SDS011;3533;51.246;6.850;2022-07-21T07:39:54;2.47;;;2.37;;
6985;SDS011;3533;51.246;6.850;2022-07-21T07:42:20;2.37;;;2.27;;
6985;SDS011;3533;51.246;6.850;2022-07-21T07:44:46;2.63;;;2.53;;
6985;SDS011;3533;51.246;6.850;2022-07-21T07:47:13;2.60;;;2.50;;
6985;SDS011;3533;51.246;6.850;2022-07-21T07:49:38;2.70;;;2.60;;
6985;SDS011;3533;51.246;6.850;2022-07-21T07:52:05;2.30;;;2.20;;
6985;SDS011;3533;51.246;6.850;2022-07-21T07:54:31;2.50;;;2.40;;
6985;SDS011;3533;51.246;6.850;2022-07-21T07:56:56;2.47;;;2.37;;
6985;SDS011;3533;51.246;6.850;2022-07-21T07:59:22;2.50;;;2.40;;
6985;SDS011;3533;51.246;6.850;2022-07-21T08:01:48;2.70;;;2.60;;
6985;SDS011;3533;51.246;6.850;2022-07-21T08:04:13;2.93;;;2.83;;
6985;SDS011;3533;51.246;6.850;2022-07-21T08:06:40;2.60;;;2.50;;
6985;SDS011;3533;51.246;6.850;2022-07-21T08:09:06;2.60;;;2.50;;
6985;SDS011;3533;51.246;6.850;2022-07-21T08:11:33;2.40;;;2.30;;
6985;SDS011;3533;51.246;6.850;2022-07-21T08:13:59;2.50;;;2.40;;
6985;SDS011;3533;51.246;6.850;2022-07-21T08:16:24;2.60;;;2.50;;
6985;SDS011;3533;51.246;6.850;2022-07-21T08:18:50;2.70;;;2.60;;
6985;SDS011;3533;51.246;6.850;2022-07-21T08:21:16;2.77;;;2.67;;
6985;SDS011;3533;51.246;6.850;2022-07-21T08:23:41;2.50;;;2.40;;
6985;SDS011;3533;51.246;6.850;2022-07-21T08:26:07;2.47;;;2.37;;
6985;SDS011;3533;51.246;6.850;2022-07-21T08:28:32;2.43;;;2.33;;
6985;SDS011;3533;51.246;6.850;2022-07-21T08:30:59;2.70;;;2.60;;
6985;SDS011;3533;51.246;6.850;2022-07-21T08:33:25;3.00;;;2.80;;
6985;SDS011;3533;51.246;6.850;2022-07-21T08:35:50;3.10;;;2.77;;
6985;SDS011;3533;51.246;6.850;2022-07-21T08:38:16;2.70;;;2.60;;
6985;SDS011;3533;51.246;6.850;2022-07-21T08:40:44;3.10;;;2.90;;
6985;SDS011;3533;51.246;6.850;2022-07-21T08:43:11;4.03;;;2.57;;
6985;SDS011;3533;51.246;6.850;2022-07-21T08:45:38;2.30;;;2.20;;
6985;SDS011;3533;51.246;6.850;2022-07-21T08:48:05;2.93;;;2.73;;
6985;SDS011;3533;51.246;6.850;2022-07-21T08:50:32;2.67;;;2.47;;
6985;SDS011;3533;51.246;6.850;2022-07-21T08:53:00;2.83;;;2.63;;
6985;SDS011;3533;51.246;6.850;2022-07-21T08:55:29;2.87;;;2.67;;
6985;SDS011;3533;51.246;6.850;2022-07-21T08:57:56;2.60;;;2.50;;
6985;SDS011;3533;51.246;6.850;2022-07-21T09:00:23;3.10;;;2.57;;
6985;SDS011;3533;51.246;6.850;2022-07-21T09:02:48;3.00;;;2.80;;
6985;SDS011;3533;51.246;6.850;2022-07-21T09:05:33;3.43;;;3.13;;
6985;SDS011;3533;51.246;6.850;2022-07-21T09:07:58;3.40;;;3.10;;
6985;SDS011;3533;51.246;6.850;2022-07-21T09:10:26;3.83;;;3.50;;
6985;SDS011;3533;51.246;6.850;2022-07-21T09:13:14;2.90;;;2.70;;
6985;SDS011;3533;51.246;6.850;2022-07-21T09:15:40;2.77;;;2.57;;
6985;SDS011;3533;51.246;6.850;2022-07-21T09:18:15;3.03;;;2.83;;
6985;SDS011;3533;51.246;6.850;2022-07-21T09:20:51;3.30;;;3.10;;
6985;SDS011;3533;51.246;6.850;2022-07-21T09:23:20;2.37;;;2.27;;
6985;SDS011;3533;51.246;6.850;2022-07-21T09:25:51;2.93;;;2.63;;
6985;SDS011;3533;51.246;6.850;2022-07-21T09:28:19;3.43;;;3.13;;
6985;SDS011;3533;51.246;6.850;2022-07-21T09:30:56;3.13;;;2.93;;
6985;SDS011;3533;51.246;6.850;2022-07-21T09:33:34;3.60;;;3.40;;
6985;SDS011;3533;51.246;6.850;2022-07-21T09:38:30;3.17;;;2.97;;
6985;SDS011;3533;51.246;6.850;2022-07-21T09:41:05;3.27;;;3.07;;
6985;SDS011;3533;51.246;6.850;2022-07-21T09:43:39;3.50;;;3.00;;
6985;SDS011;3533;51.246;6.850;2022-07-21T09:46:14;4.53;;;3.10;;
6985;SDS011;3533;51.246;6.850;2022-07-21T09:48:41;2.87;;;2.67;;
6985;SDS011;3533;51.246;6.850;2022-07-21T09:51:25;3.30;;;3.10;;
6985;SDS011;3533;51.246;6.850;2022-07-21T09:53:55;3.07;;;2.87;;
6985;SDS011;3533;51.246;6.850;2022-07-21T09:56:30;2.80;;;2.60;;
6985;SDS011;3533;51.246;6.850;2022-07-21T09:58:58;3.07;;;2.90;;
6985;SDS011;3533;51.246;6.850;2022-07-21T10:01:25;2.97;;;2.87;;
6985;SDS011;3533;51.246;6.850;2022-07-21T10:03:51;3.33;;;3.10;;
6985;SDS011;3533;51.246;6.850;2022-07-21T10:06:21;3.37;;;3.17;;
6985;SDS011;3533;51.246;6.850;2022-07-21T10:08:49;3.67;;;3.37;;
6985;SDS011;3533;51.246;6.850;2022-07-21T10:11:15;3.00;;;2.80;;
6985;SDS011;3533;51.246;6.850;2022-07-21T10:13:41;3.43;;;3.23;;
6985;SDS011;3533;51.246;6.850;2022-07-21T10:16:09;4.10;;;3.47;;
6985;SDS011;3533;51.246;6.850;2022-07-21T10:18:39;3.90;;;3.70;;
6985;SDS011;3533;51.246;6.850;2022-07-21T10:21:30;2.90;;;2.70;;
6985;SDS011;3533;51.246;6.850;2022-07-21T10:24:13;3.20;;;3.00;;
6985;SDS011;3533;51.246;6.850;2022-07-21T10:26:39;3.20;;;2.90;;
6985;SDS011;3533;51.246;6.850;2022-07-21T10:29:51;3.57;;;3.27;;
6985;SDS011;3533;51.246;6.850;2022-07-21T10:32:20;3.53;;;3.33;;
6985;SDS011;3533;51.246;6.850;2022-07-21T10:34:49;3.27;;;3.07;;
6985;SDS011;3533;51.246;6.850;2022-07-21T10:40:06;2.90;;;2.70;;
6985;SDS011;3533;51.246;6.850;2022-07-21T10:45:30;3.20;;;3.00;;
6985;SDS011;3533;51.246;6.850;2022-07-21T10:47:57;3.30;;;3.10;;
6985;SDS011;3533;51.246;6.850;2022-07-21T10:50:35;3.80;;;3.50;;
6985;SDS011;3533;51.246;6.850;2022-07-21T10:53:20;3.30;;;3.10;;
6985;SDS011;3533;51.246;6.850;2022-07-21T10:55:47;3.70;;;3.40;;
6985;SDS011;3533;51.246;6.850;2022-07-21T11:01:01;2.40;;;2.30;;
6985;SDS011;3533;51.246;6.850;2022-07-21T11:03:42;3.67;;;3.47;;
6985;SDS011;3533;51.246;6.850;2022-07-21T11:06:09;3.03;;;2.83;;
6985;SDS011;3533;51.246;6.850;2022-07-21T11:08:39;3.03;;;2.93;;
6985;SDS011;3533;51.246;6.850;2022-07-21T11:11:26;3.50;;;3.30;;
6985;SDS011;3533;51.246;6.850;2022-07-21T11:24:31;3.20;;;3.00;;
6985;SDS011;3533;51.246;6.850;2022-07-21T11:29:31;3.10;;;2.90;;
6985;SDS011;3533;51.246;6.850;2022-07-21T11:31:58;3.80;;;3.60;;
6985;SDS011;3533;51.246;6.850;2022-07-21T11:34:36;2.90;;;2.70;;
6985;SDS011;3533;51.246;6.850;2022-07-21T11:37:06;3.37;;;3.17;;
6985;SDS011;3533;51.246;6.850;2022-07-21T11:39:32;2.90;;;2.80;;
6985;SDS011;3533;51.246;6.850;2022-07-21T11:42:02;3.00;;;2.80;;
6985;SDS011;3533;51.246;6.850;2022-07-21T11:44:33;3.30;;;3.10;;
6985;SDS011;3533;51.246;6.850;2022-07-21T11:47:01;3.40;;;3.20;;
6985;SDS011;3533;51.246;6.850;2022-07-21T11:49:29;2.80;;;2.70;;
6985;SDS011;3533;51.246;6.850;2022-07-21T11:51:58;3.20;;;3.00;;
6985;SDS011;3533;51.246;6.850;2022-07-21T11:54:27;3.20;;;3.10;;
6985;SDS011;3533;51.246;6.850;2022-07-21T11:56:59;2.90;;;2.80;;
6985;SDS011;3533;51.246;6.850;2022-07-21T11:59:27;2.93;;;2.77;;
6985;SDS011;3533;51.246;6.850;2022-07-21T12:07:34;3.30;;;3.17;;
6985;SDS011;3533;51.246;6.850;2022-07-21T12:10:09;3.47;;;3.27;;
6985;SDS011;3533;51.246;6.850;2022-07-21T12:12:38;2.70;;;2.60;;
6985;SDS011;3533;51.246;6.850;2022-07-21T12:15:24;2.97;;;2.87;;
6985;SDS011;3533;51.246;6.850;2022-07-21T12:18:03;3.13;;;2.90;;
6985;SDS011;3533;51.246;6.850;2022-07-21T12:22:56;3.10;;;3.00;;
6985;SDS011;3533;51.246;6.850;2022-07-21T12:25:31;2.93;;;2.83;;
6985;SDS011;3533;51.246;6.850;2022-07-21T12:28:01;2.93;;;2.83;;
6985;SDS011;3533;51.246;6.850;2022-07-21T12:30:38;2.80;;;2.70;;
6985;SDS011;3533;51.246;6.850;2022-07-21T12:33:20;3.23;;;3.03;;
6985;SDS011;3533;51.246;6.850;2022-07-21T12:35:57;3.20;;;3.00;;
6985;SDS011;3533;51.246;6.850;2022-07-21T12:41:03;2.60;;;2.50;;
6985;SDS011;3533;51.246;6.850;2022-07-21T12:43:29;3.33;;;3.23;;
6985;SDS011;3533;51.246;6.850;2022-07-21T12:45:56;3.00;;;2.80;;
6985;SDS011;3533;51.246;6.850;2022-07-21T12:48:27;3.20;;;3.07;;
6985;SDS011;3533;51.246;6.850;2022-07-21T12:51:08;2.67;;;2.57;;
6985;SDS011;3533;51.246;6.850;2022-07-21T12:53:46;3.20;;;3.00;;
6985;SDS011;3533;51.246;6.850;2022-07-21T12:56:17;2.77;;;2.60;;
6985;SDS011;3533;51.246;6.850;2022-07-21T12:58:44;3.30;;;3.10;;
6985;SDS011;3533;51.246;6.850;2022-07-21T13:01:11;2.80;;;2.60;;
6985;SDS011;3533;51.246;6.850;2022-07-21T13:03:38;2.87;;;2.77;;
6985;SDS011;3533;51.246;6.850;2022-07-21T13:06:05;3.37;;;3.17;;
6985;SDS011;3533;51.246;6.850;2022-07-21T13:08:32;2.90;;;2.80;;
6985;SDS011;3533;51.246;6.850;2022-07-21T13:10:58;3.27;;;3.07;;
6985;SDS011;3533;51.246;6.850;2022-07-21T13:13:25;3.10;;;2.90;;
6985;SDS011;3533;51.246;6.850;2022-07-21T13:15:52;2.70;;;2.60;;
6985;SDS011;3533;51.246;6.850;2022-07-21T13:18:19;2.80;;;2.70;;
6985;SDS011;3533;51.246;6.850;2022-07-21T13:20:45;3.47;;;3.27;;
6985;SDS011;3533;51.246;6.850;2022-07-21T13:23:12;2.20;;;2.10;;
6985;SDS011;3533;51.246;6.850;2022-07-21T13:25:38;2.60;;;2.50;;
6985;SDS011;3533;51.246;6.850;2022-07-21T13:28:04;2.63;;;2.53;;
6985;SDS011;3533;51.246;6.850;2022-07-21T13:30:29;2.90;;;2.70;;
6985;SDS011;3533;51.246;6.850;2022-07-21T13:32:55;2.50;;;2.40;;
6985;SDS011;3533;51.246;6.850;2022-07-21T13:35:20;2.50;;;2.40;;
6985;SDS011;3533;51.246;6.850;2022-07-21T13:37:46;2.67;;;2.57;;
6985;SDS011;3533;51.246;6.850;2022-07-21T13:40:12;2.90;;;2.80;;
6985;SDS011;3533;51.246;6.850;2022-07-21T13:42:38;3.43;;;3.23;;
6985;SDS011;3533;51.246;6.850;2022-07-21T13:45:04;2.70;;;2.60;;
6985;SDS011;3533;51.246;6.850;2022-07-21T13:47:32;2.70;;;2.60;;
6985;SDS011;3533;51.246;6.850;2022-07-21T13:49:58;2.80;;;2.70;;
6985;SDS011;3533;51.246;6.850;2022-07-21T13:52:24;3.17;;;2.97;;
6985;SDS011;3533;51.246;6.850;2022-07-21T13:54:50;2.80;;;2.70;;
6985;SDS011;3533;51.246;6.850;2022-07-21T13:57:16;2.70;;;2.60;;
6985;SDS011;3533;51.246;6.850;2022-07-21T13:59:41;2.57;;;2.47;;
6985;SDS011;3533;51.246;6.850;2022-07-21T14:02:08;2.80;;;2.70;;
6985;SDS011;3533;51.246;6.850;2022-07-21T14:04:33;2.60;;;2.50;;
6985;SDS011;3533;51.246;6.850;2022-07-21T14:06:59;2.67;;;2.57;;
6985;SDS011;3533;51.246;6.850;2022-07-21T14:09:25;2.73;;;2.63;;
6985;SDS011;3533;51.246;6.850;2022-07-21T14:11:50;2.80;;;2.60;;
6985;SDS011;3533;51.246;6.850;2022-07-21T14:14:17;2.90;;;2.70;;
6985;SDS011;3533;51.246;6.850;2022-07-21T14:16:46;2.70;;;2.60;;
6985;SDS011;3533;51.246;6.850;2022-07-21T14:19:13;3.30;;;3.00;;
6985;SDS011;3533;51.246;6.850;2022-07-21T14:21:40;2.87;;;2.77;;
6985;SDS011;3533;51.246;6.850;2022-07-21T14:24:05;2.17;;;2.07;;
6985;SDS011;3533;51.246;6.850;2022-07-21T14:26:50;2.97;;;2.87;;
6985;SDS011;3533;51.246;6.850;2022-07-21T14:29:15;2.87;;;2.77;;
6985;SDS011;3533;51.246;6.850;2022-07-21T14:31:41;2.77;;;2.67;;
6985;SDS011;3533;51.246;6.850;2022-07-21T14:34:06;3.00;;;2.80;;
6985;SDS011;3533;51.246;6.850;2022-07-21T14:36:32;3.00;;;2.80;;
6985;SDS011;3533;51.246;6.850;2022-07-21T14:38:58;2.60;;;2.50;;
6985;SDS011;3533;51.246;6.850;2022-07-21T14:41:23;3.00;;;2.87;;
6985;SDS011;3533;51.246;6.850;2022-07-21T14:43:49;2.77;;;2.67;;
6985;SDS011;3533;51.246;6.850;2022-07-21T14:46:15;2.70;;;2.60;;
6985;SDS011;3533;51.246;6.850;2022-07-21T14:48:41;3.43;;;3.23;;
6985;SDS011;3533;51.246;6.850;2022-07-21T14:51:07;2.83;;;2.73;;
6985;SDS011;3533;51.246;6.850;2022-07-21T14:53:33;2.40;;;2.30;;
6985;SDS011;3533;51.246;6.850;2022-07-21T14:55:59;2.37;;;2.27;;
6985;SDS011;3533;51.246;6.850;2022-07-21T14:58:25;2.77;;;2.67;;
6985;SDS011;3533;51.246;6.850;2022-07-21T15:00:51;2.67;;;2.57;;
6985;SDS011;3533;51.246;6.850;2022-07-21T15:03:16;3.07;;;2.97;;
6985;SDS011;3533;51.246;6.850;2022-07-21T15:05:43;2.70;;;2.60;;
6985;SDS011;3533;51.246;6.850;2022-07-21T15:08:10;2.30;;;2.20;;
6985;SDS011;3533;51.246;6.850;2022-07-21T15:10:37;2.67;;;2.57;;
6985;SDS011;3533;51.246;6.850;2022-07-21T15:13:04;2.60;;;2.50;;
6985;SDS011;3533;51.246;6.850;2022-07-21T15:15:31;2.90;;;2.63;;
6985;SDS011;3533;51.246;6.850;2022-07-21T15:17:57;2.80;;;2.70;;
6985;SDS011;3533;51.246;6.850;2022-07-21T15:20:23;2.67;;;2.57;;
6985;SDS011;3533;51.246;6.850;2022-07-21T15:22:49;3.17;;;2.97;;
6985;SDS011;3533;51.246;6.850;2022-07-21T15:25:14;3.17;;;2.97;;
6985;SDS011;3533;51.246;6.850;2022-07-21T15:27:41;2.60;;;2.50;;
6985;SDS011;3533;51.246;6.850;2022-07-21T15:30:09;2.43;;;2.33;;
6985;SDS011;3533;51.246;6.850;2022-07-21T15:32:37;2.57;;;2.43;;
6985;SDS011;3533;51.246;6.850;2022-07-21T15:35:03;2.93;;;2.73;;
6985;SDS011;3533;51.246;6.850;2022-07-21T15:37:31;2.40;;;2.30;;
6985;SDS011;3533;51.246;6.850;2022-07-21T15:39:56;2.90;;;2.67;;
6985;SDS011;3533;51.246;6.850;2022-07-21T15:42:22;2.40;;;2.30;;
6985;SDS011;3533;51.246;6.850;2022-07-21T15:44:49;2.87;;;2.77;;
6985;SDS011;3533;51.246;6.850;2022-07-21T15:47:15;2.60;;;2.50;;
6985;SDS011;3533;51.246;6.850;2022-07-21T15:49:41;3.27;;;3.07;;
6985;SDS011;3533;51.246;6.850;2022-07-21T15:52:06;2.80;;;2.60;;